createdAt,value
2022-12-15T00:02:17.311Z,22.83
2022-12-15T00:05:02.446Z,21.40
2022-12-15T00:07:47.950Z,21.67
2022-12-15T00:10:33.402Z,19.75
2022-12-15T00:13:18.753Z,22.85
2022-12-15T00:16:06.850Z,23.05
2022-12-15T00:18:52.511Z,20.40
2022-12-15T00:21:37.845Z,20.55
2022-12-15T00:24:23.414Z,23.27
2022-12-15T00:27:08.754Z,31.75
2022-12-15T00:29:54.165Z,29.38
2022-12-15T00:32:40.324Z,26.60
2022-12-15T00:35:25.846Z,25.92
2022-12-15T00:38:11.394Z,24.58
2022-12-15T00:40:38.049Z,21.77
2022-12-15T00:43:05.119Z,24.05
2022-12-15T00:45:50.693Z,25.45
2022-12-15T00:48:17.429Z,20.70
2022-12-15T00:50:53.460Z,25.88
2022-12-15T00:53:40.238Z,28.77
2022-12-15T00:56:26.116Z,24.25
2022-12-15T00:59:12.014Z,25.38
2022-12-15T01:01:57.608Z,21.40
2022-12-15T01:04:42.812Z,18.08
2022-12-15T01:07:28.296Z,21.45
2022-12-15T01:10:13.883Z,21.77
2022-12-15T01:12:59.376Z,21.65
2022-12-15T01:15:44.969Z,22.17
2022-12-15T01:18:30.283Z,20.45
2022-12-15T01:20:57.513Z,18.85
2022-12-15T01:23:24.187Z,21.95
2022-12-15T01:25:52.242Z,22.95
2022-12-15T01:28:20.497Z,28.80
2022-12-15T01:30:47.442Z,23.80
2022-12-15T01:33:15.598Z,22.13
2022-12-15T01:35:42.333Z,24.73
2022-12-15T01:38:10.372Z,23.85
2022-12-15T01:40:46.560Z,32.55
2022-12-15T01:43:16.401Z,29.55
2022-12-15T01:45:53.397Z,32.67
2022-12-15T01:48:40.338Z,31.15
2022-12-15T01:51:29.894Z,28.05
2022-12-15T01:54:11.296Z,27.30
2022-12-15T01:56:43.994Z,25.05
2022-12-15T01:59:15.152Z,26.92
2022-12-15T02:01:42.225Z,21.63
2022-12-15T02:04:10.616Z,27.08
2022-12-15T02:06:37.338Z,26.85
2022-12-15T02:09:04.871Z,22.48
2022-12-15T02:11:37.375Z,23.73
2022-12-15T02:14:07.670Z,22.55
2022-12-15T02:17:18.737Z,20.00
2022-12-15T02:20:09.505Z,21.70
2022-12-15T02:22:51.468Z,16.45
2022-12-15T02:25:39.598Z,17.98
2022-12-15T02:28:22.893Z,24.27
2022-12-15T02:31:22.789Z,21.00
2022-12-15T02:33:54.704Z,24.45
2022-12-15T02:36:35.016Z,19.90
2022-12-15T02:39:01.815Z,18.65
2022-12-15T02:41:37.305Z,22.65
2022-12-15T02:44:12.873Z,19.92
2022-12-15T02:46:46.270Z,20.25
2022-12-15T02:49:43.238Z,22.45
2022-12-15T02:52:28.434Z,18.25
2022-12-15T02:55:01.267Z,22.60
2022-12-15T03:00:13.765Z,19.90
2022-12-15T03:02:44.731Z,17.98
2022-12-15T03:05:13.040Z,22.27
2022-12-15T03:07:42.734Z,20.17
2022-12-15T03:10:11.795Z,17.38
2022-12-15T03:12:38.513Z,19.80
2022-12-15T03:15:06.016Z,20.23
2022-12-15T03:17:32.703Z,19.40
2022-12-15T03:19:59.461Z,19.73
2022-12-15T03:22:26.275Z,17.02
2022-12-15T03:24:52.931Z,19.50
2022-12-15T03:27:19.651Z,17.50
2022-12-15T03:29:46.306Z,17.58
2022-12-15T03:32:13.065Z,18.95
2022-12-15T03:34:39.815Z,20.38
2022-12-15T03:37:06.492Z,17.48
2022-12-15T03:39:33.190Z,19.35
2022-12-15T03:41:59.872Z,18.70
2022-12-15T03:44:26.584Z,15.82
2022-12-15T03:46:54.040Z,22.75
2022-12-15T03:49:22.918Z,20.35
2022-12-15T03:51:49.627Z,19.52
2022-12-15T03:54:16.330Z,24.65
2022-12-15T03:56:43.045Z,20.90
2022-12-15T03:59:09.686Z,15.50
2022-12-15T04:01:36.976Z,20.77
2022-12-15T04:04:04.797Z,22.63
2022-12-15T04:06:31.718Z,18.58
2022-12-15T04:08:58.620Z,23.15
2022-12-15T04:11:25.326Z,23.15
2022-12-15T04:13:51.983Z,19.38
2022-12-15T04:16:20.319Z,22.83
2022-12-15T04:19:08.880Z,22.45
2022-12-15T04:21:35.513Z,22.60
2022-12-15T04:24:20.937Z,22.27
2022-12-15T04:27:06.454Z,19.42
2022-12-15T04:29:52.846Z,19.05
2022-12-15T04:32:38.177Z,20.50
2022-12-15T04:35:23.669Z,21.92
2022-12-15T04:38:09.107Z,21.25
2022-12-15T04:40:54.597Z,19.63
2022-12-15T04:43:40.063Z,19.27
2022-12-15T04:46:25.512Z,19.27
2022-12-15T04:49:10.961Z,23.98
2022-12-15T04:51:56.079Z,24.23
2022-12-15T04:54:41.515Z,21.25
2022-12-15T04:57:26.578Z,18.85
2022-12-15T05:00:11.875Z,22.83
2022-12-15T05:02:57.317Z,20.83
2022-12-15T05:05:42.770Z,16.92
2022-12-15T05:08:28.221Z,17.95
2022-12-15T05:11:13.428Z,18.00
2022-12-15T05:13:58.899Z,19.15
2022-12-15T05:16:44.237Z,21.52
2022-12-15T05:19:29.802Z,21.23
2022-12-15T05:22:15.255Z,23.98
2022-12-15T05:25:00.620Z,18.70
2022-12-15T05:27:46.029Z,19.33
2022-12-15T05:30:31.414Z,22.75
2022-12-15T05:32:58.143Z,19.55
2022-12-15T05:35:24.909Z,23.13
2022-12-15T05:37:51.627Z,20.15
2022-12-15T05:40:18.260Z,21.52
2022-12-15T05:42:44.977Z,23.92
2022-12-15T05:45:17.007Z,17.10
2022-12-15T05:47:43.697Z,17.98
2022-12-15T05:50:10.415Z,20.25
2022-12-15T05:52:37.073Z,17.77
2022-12-15T05:55:03.895Z,24.48
2022-12-15T05:57:30.595Z,21.77
2022-12-15T05:59:57.308Z,22.23
2022-12-15T06:02:24.045Z,23.58
2022-12-15T06:04:50.901Z,22.67
2022-12-15T06:07:17.618Z,21.38
2022-12-15T06:09:44.430Z,23.95
2022-12-15T06:12:11.164Z,23.52
2022-12-15T06:14:38.249Z,21.45
2022-12-15T06:17:05.115Z,20.70
2022-12-15T06:19:31.775Z,25.35
2022-12-15T06:21:58.557Z,28.40
2022-12-15T06:24:26.044Z,26.20
2022-12-15T06:26:52.762Z,25.90
2022-12-15T06:29:19.540Z,27.98
2022-12-15T06:31:46.798Z,28.35
2022-12-15T06:34:15.247Z,23.55
2022-12-15T06:36:42.306Z,20.13
2022-12-15T06:39:12.642Z,23.25
2022-12-15T06:41:39.749Z,23.33
2022-12-15T06:44:06.827Z,24.88
2022-12-15T06:46:35.099Z,25.52
2022-12-15T06:49:02.199Z,26.08
2022-12-15T06:51:28.990Z,23.20
2022-12-15T06:53:56.200Z,22.20
2022-12-15T06:56:32.729Z,24.15
2022-12-15T06:59:01.821Z,24.67
2022-12-15T07:01:29.235Z,23.25
2022-12-15T07:03:56.941Z,23.55
2022-12-15T07:06:23.947Z,21.88
2022-12-15T07:08:53.180Z,24.17
2022-12-15T07:11:21.645Z,25.55
2022-12-15T07:13:54.744Z,22.38
2022-12-15T07:16:23.158Z,22.50
2022-12-15T07:18:50.076Z,31.15
2022-12-15T07:21:17.280Z,28.92
2022-12-15T07:24:00.801Z,23.45
2022-12-15T07:26:28.356Z,23.60
2022-12-15T07:28:56.108Z,22.80
2022-12-15T07:31:23.336Z,25.35
2022-12-15T07:33:52.267Z,22.25
2022-12-15T07:36:19.552Z,21.85
2022-12-15T07:38:51.109Z,21.27
2022-12-15T07:41:19.480Z,20.90
2022-12-15T07:43:47.485Z,25.20
2022-12-15T07:46:14.587Z,26.17
2022-12-15T07:48:41.386Z,27.67
2022-12-15T07:51:15.216Z,28.83
2022-12-15T07:53:46.493Z,29.77
2022-12-15T07:56:13.606Z,28.63
2022-12-15T07:58:40.298Z,23.55
2022-12-15T08:01:10.730Z,23.00
2022-12-15T08:03:39.131Z,23.90
2022-12-15T08:06:14.191Z,26.38
2022-12-15T08:08:41.365Z,23.67
2022-12-15T08:11:09.635Z,24.73
2022-12-15T08:16:25.434Z,28.23
2022-12-15T08:18:52.355Z,33.42
2022-12-15T08:21:19.289Z,26.58
2022-12-15T08:23:46.025Z,23.60
2022-12-15T08:26:15.969Z,27.30
2022-12-15T08:28:43.269Z,26.33
2022-12-15T08:31:16.380Z,28.20
2022-12-15T08:33:43.700Z,27.63
2022-12-15T08:36:12.850Z,30.15
2022-12-15T08:38:40.924Z,31.77
2022-12-15T08:41:16.733Z,25.25
2022-12-15T08:43:48.679Z,31.85
2022-12-15T08:46:31.625Z,26.38
2022-12-15T08:48:58.389Z,27.40
2022-12-15T08:51:28.172Z,31.33
2022-12-15T08:53:56.047Z,25.08
2022-12-15T08:56:24.560Z,30.67
2022-12-15T08:58:56.838Z,28.98
2022-12-15T09:01:25.573Z,29.38
2022-12-15T09:03:53.748Z,37.58
2022-12-15T09:06:27.167Z,46.58
2022-12-15T09:08:56.503Z,53.78
2022-12-15T09:11:24.195Z,35.50
2022-12-15T09:13:51.225Z,31.17
2022-12-15T09:16:19.484Z,31.15
2022-12-15T09:18:51.964Z,30.55
2022-12-15T09:21:24.976Z,30.90
2022-12-15T09:23:53.493Z,27.77
2022-12-15T09:26:21.855Z,31.02
2022-12-15T09:28:50.743Z,33.83
2022-12-15T09:31:21.097Z,31.02
2022-12-15T09:33:49.456Z,30.83
2022-12-15T09:36:16.164Z,31.10
2022-12-15T09:38:43.668Z,35.00
2022-12-15T09:41:20.105Z,32.92
2022-12-15T09:44:02.382Z,33.15
2022-12-15T09:47:05.676Z,31.45
2022-12-15T09:49:51.176Z,33.78
2022-12-15T09:52:22.061Z,37.58
2022-12-15T09:54:48.981Z,35.00
2022-12-15T09:57:37.856Z,33.15
2022-12-15T10:00:14.244Z,34.25
2022-12-15T10:03:12.292Z,32.78
2022-12-15T10:06:21.078Z,30.23
2022-12-15T10:08:57.866Z,31.17
2022-12-15T10:11:59.269Z,36.67
2022-12-15T10:14:35.734Z,27.00
2022-12-15T10:17:26.056Z,34.47
2022-12-15T10:20:41.939Z,29.35
2022-12-15T10:23:15.024Z,33.67
2022-12-15T10:25:51.403Z,30.42
2022-12-15T10:29:02.038Z,35.55
2022-12-15T10:31:44.850Z,32.50
2022-12-15T10:34:31.932Z,32.30
2022-12-15T10:36:59.054Z,30.52
2022-12-15T10:39:40.910Z,26.95
2022-12-15T10:42:21.092Z,45.97
2022-12-15T10:44:51.486Z,32.85
2022-12-15T10:47:24.248Z,31.42
2022-12-15T10:52:34.686Z,39.42
2022-12-15T10:55:01.709Z,36.72
2022-12-15T10:57:31.602Z,37.17
2022-12-15T11:00:13.520Z,33.65
2022-12-15T11:02:42.134Z,28.70
2022-12-15T11:05:15.861Z,27.45
2022-12-15T11:07:42.609Z,29.23
2022-12-15T11:10:20.867Z,23.67
2022-12-15T11:13:19.085Z,25.67
2022-12-15T11:15:50.716Z,25.65
2022-12-15T11:18:27.562Z,26.13
2022-12-15T11:21:22.255Z,27.27
2022-12-15T11:24:07.796Z,48.03
2022-12-15T11:26:58.679Z,38.78
2022-12-15T11:29:59.692Z,44.25
2022-12-15T11:32:29.360Z,45.33
2022-12-15T11:34:56.646Z,45.40
2022-12-15T11:37:37.161Z,39.97
2022-12-15T11:40:18.883Z,39.72
2022-12-15T11:43:05.442Z,26.17
2022-12-15T11:46:01.800Z,26.25
2022-12-15T11:48:40.628Z,23.63
2022-12-15T11:51:10.337Z,29.45
2022-12-15T11:53:58.906Z,33.00
2022-12-15T11:56:37.068Z,22.42
2022-12-15T11:59:25.096Z,21.60
2022-12-15T12:02:19.827Z,27.23
2022-12-15T12:05:01.274Z,22.88
2022-12-15T12:07:46.050Z,36.35
2022-12-15T12:10:30.861Z,26.10
2022-12-15T12:13:27.992Z,26.50
2022-12-15T12:16:24.254Z,24.73
2022-12-15T12:19:09.623Z,30.85
2022-12-15T12:21:50.922Z,34.97
2022-12-15T12:24:40.852Z,27.23
2022-12-15T12:27:17.746Z,32.95
2022-12-15T12:29:52.683Z,27.70
2022-12-15T12:32:47.975Z,28.08
2022-12-15T12:35:42.565Z,25.55
2022-12-15T12:38:13.707Z,32.40
2022-12-15T12:40:40.455Z,26.77
2022-12-15T12:46:00.417Z,29.80
2022-12-15T12:48:46.223Z,26.80
2022-12-15T12:51:31.585Z,28.83
2022-12-15T12:56:48.702Z,25.63
2022-12-15T13:02:40.365Z,26.15
2022-12-15T13:05:32.471Z,27.08
2022-12-15T13:08:05.171Z,29.50
2022-12-15T13:13:15.812Z,30.83
2022-12-15T13:16:04.444Z,29.15
2022-12-15T13:18:55.191Z,31.80
2022-12-15T13:21:48.872Z,29.75
2022-12-15T13:24:46.742Z,28.38
2022-12-15T13:27:17.519Z,26.48
2022-12-15T13:30:14.266Z,30.17
2022-12-15T13:32:44.503Z,33.00
2022-12-15T13:35:12.285Z,30.45
2022-12-15T13:37:49.145Z,28.98
2022-12-15T13:40:34.858Z,33.03
2022-12-15T13:43:04.294Z,35.10
2022-12-15T13:45:37.152Z,37.13
2022-12-15T13:48:19.839Z,30.23
2022-12-15T13:51:03.684Z,30.50
2022-12-15T13:53:38.871Z,24.25
2022-12-15T13:56:11.601Z,31.70
2022-12-15T13:58:44.327Z,31.80
2022-12-15T14:01:23.941Z,25.08
2022-12-15T14:04:04.045Z,33.00
2022-12-15T14:06:36.488Z,32.85
2022-12-15T14:09:05.162Z,37.05
2022-12-15T14:11:52.405Z,35.72
2022-12-15T14:14:28.231Z,35.13
2022-12-15T14:16:58.441Z,34.33
2022-12-15T14:19:26.202Z,44.00
2022-12-15T14:21:57.933Z,38.83
2022-12-15T14:27:28.360Z,33.58
2022-12-15T14:30:20.080Z,34.97
2022-12-15T14:33:04.489Z,31.60
2022-12-15T14:35:42.221Z,31.38
2022-12-15T14:38:27.658Z,31.42
2022-12-15T14:40:57.210Z,34.88
2022-12-15T14:43:29.857Z,29.90
2022-12-15T14:46:15.393Z,31.17
2022-12-15T14:49:04.310Z,32.28
2022-12-15T14:51:40.426Z,31.23
2022-12-15T14:54:25.774Z,33.28
2022-12-15T14:57:16.679Z,35.00
2022-12-15T14:59:46.417Z,35.78
2022-12-15T15:02:26.688Z,39.63
2022-12-15T15:03:05.024Z,29.58
2022-12-15T15:03:05.151Z,31.73
2022-12-15T15:05:04.927Z,46.45
2022-12-15T15:07:32.720Z,34.78
2022-12-15T15:10:01.063Z,38.83
2022-12-15T15:12:47.106Z,38.58
2022-12-15T15:15:19.145Z,35.95
2022-12-15T15:17:50.002Z,45.85
2022-12-15T15:20:22.319Z,46.15
2022-12-15T15:23:07.492Z,38.92
2022-12-15T15:25:39.363Z,38.17
2022-12-15T15:28:21.351Z,35.40
2022-12-15T15:30:56.251Z,38.78
2022-12-15T15:33:26.801Z,44.33
2022-12-15T15:35:56.740Z,42.72
2022-12-15T15:38:42.841Z,38.88
2022-12-15T15:41:21.986Z,43.95
2022-12-15T15:43:48.670Z,39.83
2022-12-15T15:46:18.976Z,43.15
2022-12-15T15:48:53.090Z,37.70
2022-12-15T15:51:20.403Z,41.08
2022-12-15T15:53:47.691Z,44.13
2022-12-15T15:56:16.795Z,44.80
2022-12-15T15:58:44.158Z,39.85
2022-12-15T16:01:13.647Z,36.20
2022-12-15T16:03:41.195Z,38.85
2022-12-15T16:06:19.193Z,45.22
2022-12-15T16:08:51.160Z,35.80
2022-12-15T16:11:18.044Z,43.07
2022-12-15T16:13:44.945Z,41.60
2022-12-15T16:16:19.604Z,35.60
2022-12-15T16:18:46.407Z,38.42
2022-12-15T16:21:14.755Z,37.03
2022-12-15T16:23:45.894Z,35.10
2022-12-15T16:26:27.124Z,40.88
2022-12-15T16:28:54.486Z,43.10
2022-12-15T16:31:42.074Z,38.83
2022-12-15T16:34:09.274Z,43.17
2022-12-15T16:36:36.121Z,34.60
2022-12-15T16:39:03.738Z,38.88
2022-12-15T16:41:30.742Z,38.58
2022-12-15T16:43:58.554Z,35.90
2022-12-15T16:46:26.052Z,40.25
2022-12-15T16:48:53.597Z,35.05
2022-12-15T16:51:39.602Z,36.42
2022-12-15T16:54:07.110Z,38.15
2022-12-15T16:56:34.214Z,40.83
2022-12-15T16:59:31.279Z,51.95
2022-12-15T17:01:48.196Z,42.28
2022-12-15T17:04:16.886Z,46.35
2022-12-15T17:06:44.080Z,43.38
2022-12-15T17:09:19.529Z,39.17
2022-12-15T17:11:46.384Z,51.90
2022-12-15T17:14:13.285Z,48.60
2022-12-15T17:16:40.001Z,46.75
2022-12-15T17:19:06.698Z,42.75
2022-12-15T17:21:39.338Z,43.33
2022-12-15T17:24:13.177Z,43.97
2022-12-15T17:26:40.929Z,38.67
2022-12-15T17:29:25.191Z,45.67
2022-12-15T17:31:52.211Z,68.28
2022-12-15T17:34:28.694Z,58.17
2022-12-15T17:36:59.018Z,84.15
2022-12-15T17:39:27.159Z,77.05
2022-12-15T17:42:02.659Z,64.10
2022-12-15T17:44:37.363Z,51.78
2022-12-15T17:47:07.287Z,41.50
2022-12-15T17:49:37.299Z,33.60
2022-12-15T17:52:19.966Z,40.63
2022-12-15T17:54:46.700Z,47.63
2022-12-15T17:57:13.404Z,36.70
2022-12-15T17:59:40.115Z,38.97
2022-12-15T18:02:13.191Z,46.88
2022-12-15T18:04:41.550Z,42.08
2022-12-15T18:07:17.458Z,45.85
2022-12-15T18:09:44.275Z,45.50
2022-12-15T18:12:23.170Z,50.75
2022-12-15T18:14:50.298Z,44.17
2022-12-15T18:17:17.386Z,41.03
2022-12-15T18:19:44.829Z,42.25
2022-12-15T18:22:15.116Z,44.50
2022-12-15T18:24:42.141Z,50.88
2022-12-15T18:27:23.195Z,44.70
2022-12-15T18:29:50.164Z,42.13
2022-12-15T18:32:17.775Z,41.63
2022-12-15T18:34:44.951Z,45.92
2022-12-15T18:37:20.587Z,47.88
2022-12-15T18:39:47.669Z,37.58
2022-12-15T18:42:16.607Z,41.40
2022-12-15T18:44:49.229Z,44.50
2022-12-15T18:47:18.270Z,45.75
2022-12-15T18:49:45.274Z,40.13
2022-12-15T18:52:23.321Z,42.13
2022-12-15T18:54:52.461Z,43.47
2022-12-15T18:57:27.207Z,40.60
2022-12-15T19:00:01.784Z,41.47
2022-12-15T19:02:28.772Z,44.08
2022-12-15T19:04:55.723Z,36.78
2022-12-15T19:07:22.525Z,36.97
2022-12-15T19:09:49.732Z,42.28
2022-12-15T19:12:19.651Z,39.80
2022-12-15T19:14:48.817Z,42.80
2022-12-15T19:17:39.787Z,41.97
2022-12-15T19:20:35.395Z,53.92
2022-12-15T19:23:02.204Z,48.08
2022-12-15T19:25:29.699Z,43.20
2022-12-15T19:28:00.323Z,41.95
2022-12-15T19:30:29.539Z,45.05
2022-12-15T19:32:56.587Z,43.60
2022-12-15T19:35:24.211Z,42.90
2022-12-15T19:37:51.054Z,48.42
2022-12-15T19:40:22.074Z,43.25
2022-12-15T19:42:49.626Z,51.28
2022-12-15T19:45:22.653Z,48.45
2022-12-15T19:47:49.812Z,60.42
2022-12-15T19:50:22.594Z,65.68
2022-12-15T19:55:23.007Z,43.42
2022-12-15T19:57:49.679Z,41.53
2022-12-15T20:00:21.563Z,42.22
2022-12-15T20:02:54.595Z,42.87
2022-12-15T20:05:23.661Z,45.85
2022-12-15T20:07:52.234Z,45.17
2022-12-15T20:10:27.569Z,48.63
2022-12-15T20:12:56.530Z,46.17
2022-12-15T20:15:25.507Z,43.80
2022-12-15T20:17:58.695Z,46.15
2022-12-15T20:20:28.136Z,43.25
2022-12-15T20:23:03.865Z,50.92
2022-12-15T20:25:34.483Z,43.00
2022-12-15T20:28:01.812Z,47.75
2022-12-15T20:30:35.327Z,43.35
2022-12-15T20:33:03.630Z,40.88
2022-12-15T20:35:33.087Z,36.45
2022-12-15T20:38:00.934Z,47.10
2022-12-15T20:40:29.944Z,39.85
2022-12-15T20:42:57.259Z,47.80
2022-12-15T20:45:26.664Z,45.28
2022-12-15T20:47:55.386Z,53.70
2022-12-15T20:50:42.737Z,50.85
2022-12-15T20:53:25.141Z,61.00
2022-12-15T20:55:53.538Z,45.33
2022-12-15T20:58:20.688Z,41.88
2022-12-15T21:00:49.888Z,51.55
2022-12-15T21:03:25.656Z,47.55
2022-12-15T21:05:55.757Z,39.45
2022-12-15T21:08:28.275Z,46.47
2022-12-15T21:10:59.713Z,47.53
2022-12-15T21:13:30.181Z,42.60
2022-12-15T21:15:57.188Z,45.50
2022-12-15T21:21:27.879Z,43.72
2022-12-15T21:23:55.336Z,43.65
2022-12-15T21:26:23.661Z,46.03
2022-12-15T21:28:55.622Z,45.42
2022-12-15T21:31:22.837Z,46.07
2022-12-15T21:33:49.679Z,47.30
2022-12-15T21:36:18.917Z,42.83
2022-12-15T21:38:48.912Z,41.72
2022-12-15T21:41:18.284Z,38.38
2022-12-15T21:43:46.219Z,46.63
2022-12-15T21:46:27.537Z,41.70
2022-12-15T21:49:20.438Z,48.78
2022-12-15T21:51:53.754Z,42.03
2022-12-15T21:54:32.162Z,45.30
2022-12-15T21:56:59.890Z,46.83
2022-12-15T21:59:29.455Z,45.25
2022-12-15T22:01:56.628Z,52.75
2022-12-15T22:04:28.482Z,43.50
2022-12-15T22:06:55.453Z,44.75
2022-12-15T22:09:22.219Z,45.83
2022-12-15T22:11:51.541Z,48.90
2022-12-15T22:14:29.864Z,42.40
2022-12-15T22:16:58.582Z,46.40
2022-12-15T22:19:25.533Z,48.72
2022-12-15T22:21:52.533Z,48.83
2022-12-15T22:24:19.377Z,41.60
2022-12-15T22:26:47.140Z,46.40
2022-12-15T22:29:19.323Z,49.78
2022-12-15T22:31:46.913Z,45.75
2022-12-15T22:34:16.739Z,47.75
2022-12-15T22:36:44.148Z,46.60
2022-12-15T22:39:11.280Z,50.30
2022-12-15T22:41:51.641Z,45.67
2022-12-15T22:44:27.359Z,49.22
2022-12-15T22:46:56.745Z,47.38
2022-12-15T22:49:34.258Z,47.30
2022-12-15T22:52:01.037Z,49.70
2022-12-15T22:54:30.751Z,51.55
2022-12-15T22:57:04.170Z,50.60
2022-12-15T22:59:43.188Z,47.47
2022-12-15T23:02:10.727Z,45.40
2022-12-15T23:04:37.517Z,48.13
2022-12-15T23:07:07.448Z,50.88
2022-12-15T23:09:34.177Z,47.90
2022-12-15T23:12:00.957Z,47.45
2022-12-15T23:14:46.188Z,49.83
2022-12-15T23:17:14.210Z,49.88
2022-12-15T23:19:47.073Z,46.88
2022-12-15T23:22:14.148Z,51.50
2022-12-15T23:24:40.847Z,51.75
2022-12-15T23:27:13.512Z,44.63
2022-12-15T23:29:40.220Z,51.92
2022-12-15T23:32:06.979Z,50.33
2022-12-15T23:34:34.917Z,47.17
2022-12-15T23:37:02.438Z,54.22
2022-12-15T23:39:29.083Z,42.15
2022-12-15T23:41:55.815Z,47.38
2022-12-15T23:44:22.848Z,48.17
2022-12-15T23:46:49.653Z,41.78
2022-12-15T23:49:17.159Z,58.42
2022-12-15T23:51:43.796Z,56.10
2022-12-15T23:54:10.529Z,53.58
2022-12-15T23:56:39.569Z,52.78
2022-12-15T23:59:06.973Z,51.80
